sensor_id;sensor_type;location;lat;lon;timestamp;P1;durP1;ratioP1;P2;durP2;ratioP2
9661;SDS011;24982;52.344;12.990;2022-08-01T00:02:51;4.75;;;3.58;;
9661;SDS011;24982;52.344;12.990;2022-08-01T00:05:53;3.53;;;3.33;;
9661;SDS011;24982;52.344;12.990;2022-08-01T00:08:57;3.50;;;3.30;;
9661;SDS011;24982;52.344;12.990;2022-08-01T00:11:58;3.33;;;3.13;;
9661;SDS011;24982;52.344;12.990;2022-08-01T00:15:01;3.65;;;3.38;;
9661;SDS011;24982;52.344;12.990;2022-08-01T00:18:03;3.65;;;3.45;;
9661;SDS011;24982;52.344;12.990;2022-08-01T00:21:05;3.30;;;3.05;;
9661;SDS011;24982;52.344;12.990;2022-08-01T00:24:08;3.60;;;3.28;;
9661;SDS011;24982;52.344;12.990;2022-08-01T00:27:11;4.30;;;3.80;;
9661;SDS011;24982;52.344;12.990;2022-08-01T00:30:13;3.83;;;3.50;;
9661;SDS011;24982;52.344;12.990;2022-08-01T00:33:15;4.63;;;3.60;;
9661;SDS011;24982;52.344;12.990;2022-08-01T00:36:17;3.72;;;3.42;;
9661;SDS011;24982;52.344;12.990;2022-08-01T00:39:20;3.75;;;3.45;;
9661;SDS011;24982;52.344;12.990;2022-08-01T00:42:22;9.63;;;4.00;;
9661;SDS011;24982;52.344;12.990;2022-08-01T00:45:24;4.00;;;3.55;;
9661;SDS011;24982;52.344;12.990;2022-08-01T00:48:26;4.25;;;3.40;;
9661;SDS011;24982;52.344;12.990;2022-08-01T00:51:28;3.90;;;3.60;;
9661;SDS011;24982;52.344;12.990;2022-08-01T00:54:32;3.90;;;3.58;;
9661;SDS011;24982;52.344;12.990;2022-08-01T00:57:35;3.58;;;3.30;;
9661;SDS011;24982;52.344;12.990;2022-08-01T01:00:37;3.70;;;3.50;;
9661;SDS011;24982;52.344;12.990;2022-08-01T01:03:39;3.75;;;3.53;;
9661;SDS011;24982;52.344;12.990;2022-08-01T01:06:42;3.47;;;3.33;;
9661;SDS011;24982;52.344;12.990;2022-08-01T01:09:56;4.90;;;3.45;;
9661;SDS011;24982;52.344;12.990;2022-08-01T01:13:03;3.85;;;3.45;;
9661;SDS011;24982;52.344;12.990;2022-08-01T01:16:09;4.28;;;3.47;;
9661;SDS011;24982;52.344;12.990;2022-08-01T01:19:16;4.18;;;3.88;;
9661;SDS011;24982;52.344;12.990;2022-08-01T01:22:31;4.07;;;3.65;;
9661;SDS011;24982;52.344;12.990;2022-08-01T01:25:51;3.80;;;3.50;;
9661;SDS011;24982;52.344;12.990;2022-08-01T01:29:13;3.47;;;3.35;;
9661;SDS011;24982;52.344;12.990;2022-08-01T01:32:19;3.83;;;3.53;;
9661;SDS011;24982;52.344;12.990;2022-08-01T01:35:24;3.90;;;3.60;;
9661;SDS011;24982;52.344;12.990;2022-08-01T01:38:31;3.92;;;3.60;;
9661;SDS011;24982;52.344;12.990;2022-08-01T01:41:35;4.22;;;3.92;;
9661;SDS011;24982;52.344;12.990;2022-08-01T01:44:40;3.40;;;3.20;;
9661;SDS011;24982;52.344;12.990;2022-08-01T01:47:44;5.20;;;3.83;;
9661;SDS011;24982;52.344;12.990;2022-08-01T01:50:47;3.90;;;3.60;;
9661;SDS011;24982;52.344;12.990;2022-08-01T01:53:50;3.30;;;3.00;;
9661;SDS011;24982;52.344;12.990;2022-08-01T01:56:55;3.95;;;3.60;;
9661;SDS011;24982;52.344;12.990;2022-08-01T02:00:00;3.58;;;3.38;;
9661;SDS011;24982;52.344;12.990;2022-08-01T02:03:05;3.70;;;3.38;;
9661;SDS011;24982;52.344;12.990;2022-08-01T02:06:11;4.07;;;3.75;;
9661;SDS011;24982;52.344;12.990;2022-08-01T02:09:16;4.63;;;3.47;;
9661;SDS011;24982;52.344;12.990;2022-08-01T02:12:19;3.58;;;3.38;;
9661;SDS011;24982;52.344;12.990;2022-08-01T02:15:24;3.55;;;3.30;;
9661;SDS011;24982;52.344;12.990;2022-08-01T02:18:27;5.15;;;3.70;;
9661;SDS011;24982;52.344;12.990;2022-08-01T02:21:29;5.43;;;3.50;;
9661;SDS011;24982;52.344;12.990;2022-08-01T02:24:36;3.50;;;3.30;;
9661;SDS011;24982;52.344;12.990;2022-08-01T02:27:42;3.63;;;3.33;;
9661;SDS011;24982;52.344;12.990;2022-08-01T02:30:49;4.22;;;3.63;;
9661;SDS011;24982;52.344;12.990;2022-08-01T02:33:54;3.42;;;3.20;;
9661;SDS011;24982;52.344;12.990;2022-08-01T02:37:00;4.07;;;3.53;;
9661;SDS011;24982;52.344;12.990;2022-08-01T02:40:04;3.40;;;3.20;;
9661;SDS011;24982;52.344;12.990;2022-08-01T02:43:09;3.63;;;3.33;;
9661;SDS011;24982;52.344;12.990;2022-08-01T02:46:16;3.83;;;3.53;;
9661;SDS011;24982;52.344;12.990;2022-08-01T02:49:22;3.97;;;3.30;;
9661;SDS011;24982;52.344;12.990;2022-08-01T02:52:26;4.32;;;3.35;;
9661;SDS011;24982;52.344;12.990;2022-08-01T02:55:30;3.47;;;3.28;;
9661;SDS011;24982;52.344;12.990;2022-08-01T02:58:33;3.60;;;3.30;;
9661;SDS011;24982;52.344;12.990;2022-08-01T03:01:39;4.00;;;3.67;;
9661;SDS011;24982;52.344;12.990;2022-08-01T03:04:43;3.95;;;3.65;;
9661;SDS011;24982;52.344;12.990;2022-08-01T03:07:47;3.80;;;3.40;;
9661;SDS011;24982;52.344;12.990;2022-08-01T03:10:50;3.63;;;3.42;;
9661;SDS011;24982;52.344;12.990;2022-08-01T03:13:55;3.88;;;3.58;;
9661;SDS011;24982;52.344;12.990;2022-08-01T03:17:01;3.78;;;3.30;;
9661;SDS011;24982;52.344;12.990;2022-08-01T03:20:05;3.60;;;3.30;;
9661;SDS011;24982;52.344;12.990;2022-08-01T03:23:10;5.05;;;3.78;;
9661;SDS011;24982;52.344;12.990;2022-08-01T03:26:13;3.40;;;3.13;;
9661;SDS011;24982;52.344;12.990;2022-08-01T03:29:17;3.45;;;3.10;;
9661;SDS011;24982;52.344;12.990;2022-08-01T03:32:22;4.85;;;3.65;;
9661;SDS011;24982;52.344;12.990;2022-08-01T03:35:26;3.78;;;3.47;;
9661;SDS011;24982;52.344;12.990;2022-08-01T03:38:30;3.75;;;3.45;;
9661;SDS011;24982;52.344;12.990;2022-08-01T03:41:39;3.60;;;3.40;;
9661;SDS011;24982;52.344;12.990;2022-08-01T03:44:45;3.42;;;3.13;;
9661;SDS011;24982;52.344;12.990;2022-08-01T03:47:55;3.65;;;3.40;;
9661;SDS011;24982;52.344;12.990;2022-08-01T03:51:00;4.28;;;3.47;;
9661;SDS011;24982;52.344;12.990;2022-08-01T03:54:04;4.20;;;3.40;;
9661;SDS011;24982;52.344;12.990;2022-08-01T03:57:07;3.83;;;3.38;;
9661;SDS011;24982;52.344;12.990;2022-08-01T04:00:12;3.55;;;3.28;;
9661;SDS011;24982;52.344;12.990;2022-08-01T04:03:19;3.42;;;3.13;;
9661;SDS011;24982;52.344;12.990;2022-08-01T04:06:21;3.50;;;3.22;;
9661;SDS011;24982;52.344;12.990;2022-08-01T04:09:23;3.38;;;3.17;;
9661;SDS011;24982;52.344;12.990;2022-08-01T04:12:25;3.60;;;3.40;;
9661;SDS011;24982;52.344;12.990;2022-08-01T04:15:28;3.60;;;3.40;;
9661;SDS011;24982;52.344;12.990;2022-08-01T04:18:31;4.10;;;3.40;;
9661;SDS011;24982;52.344;12.990;2022-08-01T04:21:33;3.50;;;3.25;;
9661;SDS011;24982;52.344;12.990;2022-08-01T04:24:36;3.38;;;3.17;;
9661;SDS011;24982;52.344;12.990;2022-08-01T04:27:40;3.53;;;3.33;;
9661;SDS011;24982;52.344;12.990;2022-08-01T04:30:47;3.88;;;3.63;;
9661;SDS011;24982;52.344;12.990;2022-08-01T04:33:54;4.10;;;3.70;;
9661;SDS011;24982;52.344;12.990;2022-08-01T04:36:57;3.55;;;3.15;;
9661;SDS011;24982;52.344;12.990;2022-08-01T04:40:01;4.72;;;4.05;;
9661;SDS011;24982;52.344;12.990;2022-08-01T04:43:04;4.18;;;3.88;;
9661;SDS011;24982;52.344;12.990;2022-08-01T04:46:06;4.13;;;3.78;;
9661;SDS011;24982;52.344;12.990;2022-08-01T04:49:11;4.10;;;3.80;;
9661;SDS011;24982;52.344;12.990;2022-08-01T04:52:16;3.97;;;3.72;;
9661;SDS011;24982;52.344;12.990;2022-08-01T04:55:19;4.05;;;3.85;;
9661;SDS011;24982;52.344;12.990;2022-08-01T04:58:21;3.75;;;3.55;;
9661;SDS011;24982;52.344;12.990;2022-08-01T05:01:23;3.80;;;3.40;;
9661;SDS011;24982;52.344;12.990;2022-08-01T05:04:26;3.95;;;3.30;;
9661;SDS011;24982;52.344;12.990;2022-08-01T05:07:29;3.53;;;3.33;;
9661;SDS011;24982;52.344;12.990;2022-08-01T05:10:31;4.15;;;3.75;;
9661;SDS011;24982;52.344;12.990;2022-08-01T05:13:33;4.13;;;3.83;;
9661;SDS011;24982;52.344;12.990;2022-08-01T05:16:35;3.50;;;3.30;;
9661;SDS011;24982;52.344;12.990;2022-08-01T05:19:39;4.18;;;3.47;;
9661;SDS011;24982;52.344;12.990;2022-08-01T05:22:43;4.00;;;3.50;;
9661;SDS011;24982;52.344;12.990;2022-08-01T05:25:44;5.30;;;3.50;;
9661;SDS011;24982;52.344;12.990;2022-08-01T05:28:46;3.38;;;3.17;;
9661;SDS011;24982;52.344;12.990;2022-08-01T05:31:49;3.53;;;3.30;;
9661;SDS011;24982;52.344;12.990;2022-08-01T05:34:52;3.53;;;3.15;;
9661;SDS011;24982;52.344;12.990;2022-08-01T05:37:54;3.17;;;2.95;;
9661;SDS011;24982;52.344;12.990;2022-08-01T05:40:56;3.33;;;3.10;;
9661;SDS011;24982;52.344;12.990;2022-08-01T05:43:58;3.30;;;3.10;;
9661;SDS011;24982;52.344;12.990;2022-08-01T05:47:00;3.80;;;3.50;;
9661;SDS011;24982;52.344;12.990;2022-08-01T05:50:04;3.25;;;3.05;;
9661;SDS011;24982;52.344;12.990;2022-08-01T05:53:07;3.88;;;3.47;;
9661;SDS011;24982;52.344;12.990;2022-08-01T05:56:09;3.03;;;2.90;;
9661;SDS011;24982;52.344;12.990;2022-08-01T05:59:11;4.15;;;3.30;;
9661;SDS011;24982;52.344;12.990;2022-08-01T06:02:13;3.78;;;3.58;;
9661;SDS011;24982;52.344;12.990;2022-08-01T06:05:16;3.67;;;3.47;;
9661;SDS011;24982;52.344;12.990;2022-08-01T06:08:18;3.33;;;3.13;;
9661;SDS011;24982;52.344;12.990;2022-08-01T06:11:20;3.63;;;3.42;;
9661;SDS011;24982;52.344;12.990;2022-08-01T06:14:22;3.90;;;3.60;;
9661;SDS011;24982;52.344;12.990;2022-08-01T06:17:25;3.80;;;3.50;;
9661;SDS011;24982;52.344;12.990;2022-08-01T06:20:28;5.03;;;3.10;;
9661;SDS011;24982;52.344;12.990;2022-08-01T06:23:30;3.33;;;3.13;;
9661;SDS011;24982;52.344;12.990;2022-08-01T06:26:32;2.90;;;2.70;;
9661;SDS011;24982;52.344;12.990;2022-08-01T06:29:35;3.53;;;3.15;;
9661;SDS011;24982;52.344;12.990;2022-08-01T06:32:37;2.90;;;2.80;;
9661;SDS011;24982;52.344;12.990;2022-08-01T06:35:40;3.00;;;2.90;;
9661;SDS011;24982;52.344;12.990;2022-08-01T06:38:43;3.60;;;3.30;;
9661;SDS011;24982;52.344;12.990;2022-08-01T06:41:46;3.22;;;3.13;;
9661;SDS011;24982;52.344;12.990;2022-08-01T06:44:48;3.28;;;3.10;;
9661;SDS011;24982;52.344;12.990;2022-08-01T06:47:50;3.42;;;3.22;;
9661;SDS011;24982;52.344;12.990;2022-08-01T06:50:54;3.65;;;3.45;;
9661;SDS011;24982;52.344;12.990;2022-08-01T06:54:08;3.60;;;3.40;;
9661;SDS011;24982;52.344;12.990;2022-08-01T06:57:10;3.17;;;3.08;;
9661;SDS011;24982;52.344;12.990;2022-08-01T07:00:13;4.75;;;3.60;;
9661;SDS011;24982;52.344;12.990;2022-08-01T07:03:16;4.10;;;3.80;;
9661;SDS011;24982;52.344;12.990;2022-08-01T07:06:19;4.30;;;4.10;;
9661;SDS011;24982;52.344;12.990;2022-08-01T07:09:22;4.97;;;4.57;;
9661;SDS011;24982;52.344;12.990;2022-08-01T07:12:25;4.57;;;4.28;;
9661;SDS011;24982;52.344;12.990;2022-08-01T07:15:27;4.68;;;4.47;;
9661;SDS011;24982;52.344;12.990;2022-08-01T07:18:29;4.40;;;4.10;;
9661;SDS011;24982;52.344;12.990;2022-08-01T07:21:32;4.20;;;4.00;;
9661;SDS011;24982;52.344;12.990;2022-08-01T07:24:35;4.60;;;4.35;;
9661;SDS011;24982;52.344;12.990;2022-08-01T07:27:37;4.72;;;4.38;;
9661;SDS011;24982;52.344;12.990;2022-08-01T07:30:39;4.82;;;4.53;;
9661;SDS011;24982;52.344;12.990;2022-08-01T07:33:42;5.40;;;5.00;;
9661;SDS011;24982;52.344;12.990;2022-08-01T07:36:45;5.00;;;4.78;;
9661;SDS011;24982;52.344;12.990;2022-08-01T07:39:47;5.28;;;4.97;;
9661;SDS011;24982;52.344;12.990;2022-08-01T07:42:49;5.55;;;5.07;;
9661;SDS011;24982;52.344;12.990;2022-08-01T07:45:51;5.78;;;5.38;;
9661;SDS011;24982;52.344;12.990;2022-08-01T07:48:53;4.97;;;4.57;;
9661;SDS011;24982;52.344;12.990;2022-08-01T07:51:56;5.45;;;5.10;;
9661;SDS011;24982;52.344;12.990;2022-08-01T07:54:58;5.00;;;4.70;;
9661;SDS011;24982;52.344;12.990;2022-08-01T07:58:00;4.97;;;4.68;;
9661;SDS011;24982;52.344;12.990;2022-08-01T08:01:03;4.45;;;4.22;;
9661;SDS011;24982;52.344;12.990;2022-08-01T08:04:04;4.50;;;4.20;;
9661;SDS011;24982;52.344;12.990;2022-08-01T08:07:08;4.63;;;4.20;;
9661;SDS011;24982;52.344;12.990;2022-08-01T08:10:10;4.18;;;3.72;;
9661;SDS011;24982;52.344;12.990;2022-08-01T08:13:12;4.07;;;3.78;;
9661;SDS011;24982;52.344;12.990;2022-08-01T08:16:14;4.10;;;3.80;;
9661;SDS011;24982;52.344;12.990;2022-08-01T08:19:16;3.60;;;3.47;;
9661;SDS011;24982;52.344;12.990;2022-08-01T08:22:20;4.13;;;3.83;;
9661;SDS011;24982;52.344;12.990;2022-08-01T08:25:22;4.85;;;3.80;;
9661;SDS011;24982;52.344;12.990;2022-08-01T08:28:24;3.55;;;3.38;;
9661;SDS011;24982;52.344;12.990;2022-08-01T08:31:26;4.13;;;3.92;;
9661;SDS011;24982;52.344;12.990;2022-08-01T08:34:28;4.40;;;4.10;;
9661;SDS011;24982;52.344;12.990;2022-08-01T08:37:32;4.00;;;3.80;;
9661;SDS011;24982;52.344;12.990;2022-08-01T08:40:35;3.50;;;3.30;;
9661;SDS011;24982;52.344;12.990;2022-08-01T08:43:37;3.75;;;3.55;;
9661;SDS011;24982;52.344;12.990;2022-08-01T08:46:40;3.80;;;3.50;;
9661;SDS011;24982;52.344;12.990;2022-08-01T08:49:44;3.70;;;3.50;;
9661;SDS011;24982;52.344;12.990;2022-08-01T08:52:47;3.67;;;3.47;;
9661;SDS011;24982;52.344;12.990;2022-08-01T08:55:51;3.83;;;3.63;;
9661;SDS011;24982;52.344;12.990;2022-08-01T08:58:53;3.53;;;3.22;;
9661;SDS011;24982;52.344;12.990;2022-08-01T09:01:55;3.30;;;3.10;;
9661;SDS011;24982;52.344;12.990;2022-08-01T09:04:57;3.55;;;3.30;;
9661;SDS011;24982;52.344;12.990;2022-08-01T09:08:01;3.83;;;3.30;;
9661;SDS011;24982;52.344;12.990;2022-08-01T09:11:03;3.20;;;3.10;;
9661;SDS011;24982;52.344;12.990;2022-08-01T09:14:07;3.17;;;3.00;;
9661;SDS011;24982;52.344;12.990;2022-08-01T09:17:10;3.45;;;3.15;;
9661;SDS011;24982;52.344;12.990;2022-08-01T09:20:21;2.72;;;2.60;;
9661;SDS011;24982;52.344;12.990;2022-08-01T09:23:32;3.17;;;2.78;;
9661;SDS011;24982;52.344;12.990;2022-08-01T09:26:35;2.60;;;2.50;;
9661;SDS011;24982;52.344;12.990;2022-08-01T09:29:37;2.70;;;2.50;;
9661;SDS011;24982;52.344;12.990;2022-08-01T09:32:55;2.42;;;2.25;;
9661;SDS011;24982;52.344;12.990;2022-08-01T09:35:58;1.95;;;1.95;;
9661;SDS011;24982;52.344;12.990;2022-08-01T09:39:05;2.03;;;1.98;;
9661;SDS011;24982;52.344;12.990;2022-08-01T09:42:20;1.83;;;1.75;;
9661;SDS011;24982;52.344;12.990;2022-08-01T09:45:31;2.10;;;1.90;;
9661;SDS011;24982;52.344;12.990;2022-08-01T09:48:33;3.28;;;1.90;;
9661;SDS011;24982;52.344;12.990;2022-08-01T09:51:38;2.00;;;1.90;;
9661;SDS011;24982;52.344;12.990;2022-08-01T09:54:42;1.88;;;1.77;;
9661;SDS011;24982;52.344;12.990;2022-08-01T09:57:54;2.00;;;1.90;;
9661;SDS011;24982;52.344;12.990;2022-08-01T10:00:58;3.80;;;1.73;;
9661;SDS011;24982;52.344;12.990;2022-08-01T10:04:08;1.80;;;1.70;;
9661;SDS011;24982;52.344;12.990;2022-08-01T10:07:11;2.65;;;2.05;;
9661;SDS011;24982;52.344;12.990;2022-08-01T10:10:16;2.00;;;1.90;;
9661;SDS011;24982;52.344;12.990;2022-08-01T10:13:19;1.98;;;1.90;;
9661;SDS011;24982;52.344;12.990;2022-08-01T10:16:21;1.80;;;1.70;;
9661;SDS011;24982;52.344;12.990;2022-08-01T10:19:23;1.63;;;1.60;;
9661;SDS011;24982;52.344;12.990;2022-08-01T10:22:27;1.92;;;1.83;;
9661;SDS011;24982;52.344;12.990;2022-08-01T10:25:37;1.80;;;1.70;;
9661;SDS011;24982;52.344;12.990;2022-08-01T10:28:42;2.05;;;1.80;;
9661;SDS011;24982;52.344;12.990;2022-08-01T10:31:48;1.85;;;1.75;;
9661;SDS011;24982;52.344;12.990;2022-08-01T10:34:51;1.90;;;1.80;;
9661;SDS011;24982;52.344;12.990;2022-08-01T10:37:53;1.85;;;1.75;;
9661;SDS011;24982;52.344;12.990;2022-08-01T10:40:59;1.90;;;1.80;;
9661;SDS011;24982;52.344;12.990;2022-08-01T10:44:04;1.80;;;1.80;;
9661;SDS011;24982;52.344;12.990;2022-08-01T10:47:09;1.80;;;1.70;;
9661;SDS011;24982;52.344;12.990;2022-08-01T10:50:14;1.80;;;1.70;;
9661;SDS011;24982;52.344;12.990;2022-08-01T10:53:20;2.20;;;1.55;;
9661;SDS011;24982;52.344;12.990;2022-08-01T10:56:25;6.03;;;1.73;;
9661;SDS011;24982;52.344;12.990;2022-08-01T10:59:47;1.70;;;1.60;;
9661;SDS011;24982;52.344;12.990;2022-08-01T11:02:57;1.38;;;1.33;;
9661;SDS011;24982;52.344;12.990;2022-08-01T11:06:00;4.85;;;1.60;;
9661;SDS011;24982;52.344;12.990;2022-08-01T11:09:05;1.95;;;1.38;;
9661;SDS011;24982;52.344;12.990;2022-08-01T11:12:22;1.50;;;1.40;;
9661;SDS011;24982;52.344;12.990;2022-08-01T11:15:39;1.35;;;1.35;;
9661;SDS011;24982;52.344;12.990;2022-08-01T11:18:46;1.27;;;1.27;;
9661;SDS011;24982;52.344;12.990;2022-08-01T11:21:58;1.30;;;1.20;;
9661;SDS011;24982;52.344;12.990;2022-08-01T11:25:02;3.25;;;1.20;;
9661;SDS011;24982;52.344;12.990;2022-08-01T11:28:18;1.95;;;1.40;;
9661;SDS011;24982;52.344;12.990;2022-08-01T11:31:25;1.20;;;1.20;;
9661;SDS011;24982;52.344;12.990;2022-08-01T11:37:56;7.88;;;1.38;;
9661;SDS011;24982;52.344;12.990;2022-08-01T11:41:22;4.75;;;1.23;;
9661;SDS011;24982;52.344;12.990;2022-08-01T11:44:25;1.13;;;1.00;;
9661;SDS011;24982;52.344;12.990;2022-08-01T11:47:43;1.02;;;1.02;;
9661;SDS011;24982;52.344;12.990;2022-08-01T11:50:47;1.65;;;1.20;;
9661;SDS011;24982;52.344;12.990;2022-08-01T11:53:51;3.15;;;2.00;;
9661;SDS011;24982;52.344;12.990;2022-08-01T11:56:56;0.80;;;0.80;;
9661;SDS011;24982;52.344;12.990;2022-08-01T11:59:59;1.42;;;1.30;;
9661;SDS011;24982;52.344;12.990;2022-08-01T12:03:12;0.90;;;0.90;;
9661;SDS011;24982;52.344;12.990;2022-08-01T12:06:14;1.40;;;1.00;;
9661;SDS011;24982;52.344;12.990;2022-08-01T12:09:28;1.65;;;1.20;;
9661;SDS011;24982;52.344;12.990;2022-08-01T12:12:32;1.52;;;1.38;;
9661;SDS011;24982;52.344;12.990;2022-08-01T12:15:36;8.93;;;4.40;;
9661;SDS011;24982;52.344;12.990;2022-08-01T12:18:38;8.63;;;5.38;;
9661;SDS011;24982;52.344;12.990;2022-08-01T12:21:42;57.42;;;23.95;;
9661;SDS011;24982;52.344;12.990;2022-08-01T12:24:44;46.75;;;21.58;;
9661;SDS011;24982;52.344;12.990;2022-08-01T12:27:48;2.83;;;1.60;;
9661;SDS011;24982;52.344;12.990;2022-08-01T12:30:51;1.30;;;1.30;;
9661;SDS011;24982;52.344;12.990;2022-08-01T12:33:53;2.70;;;1.23;;
9661;SDS011;24982;52.344;12.990;2022-08-01T12:36:56;1.90;;;1.80;;
9661;SDS011;24982;52.344;12.990;2022-08-01T12:39:59;20.08;;;8.65;;
9661;SDS011;24982;52.344;12.990;2022-08-01T12:43:03;1.33;;;1.10;;
9661;SDS011;24982;52.344;12.990;2022-08-01T12:46:07;6.10;;;3.28;;
9661;SDS011;24982;52.344;12.990;2022-08-01T12:49:16;2.95;;;1.30;;
9661;SDS011;24982;52.344;12.990;2022-08-01T12:52:18;9.30;;;5.07;;
9661;SDS011;24982;52.344;12.990;2022-08-01T12:55:22;1.35;;;1.30;;
9661;SDS011;24982;52.344;12.990;2022-08-01T12:58:31;3.10;;;1.27;;
9661;SDS011;24982;52.344;12.990;2022-08-01T13:01:34;3.20;;;1.50;;
9661;SDS011;24982;52.344;12.990;2022-08-01T13:04:49;1.10;;;1.10;;
9661;SDS011;24982;52.344;12.990;2022-08-01T13:07:51;1.38;;;1.30;;
9661;SDS011;24982;52.344;12.990;2022-08-01T13:10:59;1.35;;;1.27;;
9661;SDS011;24982;52.344;12.990;2022-08-01T13:14:03;1.88;;;1.40;;
9661;SDS011;24982;52.344;12.990;2022-08-01T13:17:05;1.10;;;1.10;;
9661;SDS011;24982;52.344;12.990;2022-08-01T13:20:08;3.60;;;1.27;;
9661;SDS011;24982;52.344;12.990;2022-08-01T13:23:11;3.47;;;1.35;;
9661;SDS011;24982;52.344;12.990;2022-08-01T13:26:14;1.08;;;0.85;;
9661;SDS011;24982;52.344;12.990;2022-08-01T13:29:18;1.02;;;1.00;;
9661;SDS011;24982;52.344;12.990;2022-08-01T13:32:23;0.90;;;0.90;;
9661;SDS011;24982;52.344;12.990;2022-08-01T13:35:25;1.05;;;1.05;;
9661;SDS011;24982;52.344;12.990;2022-08-01T13:38:27;1.00;;;0.85;;
9661;SDS011;24982;52.344;12.990;2022-08-01T13:41:46;1.10;;;1.10;;
9661;SDS011;24982;52.344;12.990;2022-08-01T13:44:50;1.45;;;0.90;;
9661;SDS011;24982;52.344;12.990;2022-08-01T13:47:52;0.93;;;0.93;;
9661;SDS011;24982;52.344;12.990;2022-08-01T13:50:54;1.90;;;0.90;;
9661;SDS011;24982;52.344;12.990;2022-08-01T13:53:56;1.65;;;0.80;;
9661;SDS011;24982;52.344;12.990;2022-08-01T13:56:58;1.23;;;1.17;;
9661;SDS011;24982;52.344;12.990;2022-08-01T14:00:02;3.00;;;2.58;;
9661;SDS011;24982;52.344;12.990;2022-08-01T14:03:12;0.98;;;0.93;;
9661;SDS011;24982;52.344;12.990;2022-08-01T14:06:14;2.25;;;2.05;;
9661;SDS011;24982;52.344;12.990;2022-08-01T14:09:17;2.00;;;0.98;;
9661;SDS011;24982;52.344;12.990;2022-08-01T14:12:19;1.05;;;1.00;;
9661;SDS011;24982;52.344;12.990;2022-08-01T14:15:22;2.47;;;1.88;;
9661;SDS011;24982;52.344;12.990;2022-08-01T14:18:25;3.47;;;1.05;;
9661;SDS011;24982;52.344;12.990;2022-08-01T14:21:27;0.80;;;0.80;;
9661;SDS011;24982;52.344;12.990;2022-08-01T14:24:29;2.13;;;1.90;;
9661;SDS011;24982;52.344;12.990;2022-08-01T14:27:31;1.40;;;1.40;;
9661;SDS011;24982;52.344;12.990;2022-08-01T14:30:37;2.63;;;1.20;;
9661;SDS011;24982;52.344;12.990;2022-08-01T14:33:41;1.00;;;1.00;;
9661;SDS011;24982;52.344;12.990;2022-08-01T14:36:43;1.38;;;0.90;;
9661;SDS011;24982;52.344;12.990;2022-08-01T14:39:45;0.88;;;0.88;;
9661;SDS011;24982;52.344;12.990;2022-08-01T14:42:47;1.15;;;0.82;;
9661;SDS011;24982;52.344;12.990;2022-08-01T14:45:50;0.80;;;0.80;;
9661;SDS011;24982;52.344;12.990;2022-08-01T14:48:54;2.08;;;0.85;;
9661;SDS011;24982;52.344;12.990;2022-08-01T14:51:56;2.88;;;1.00;;
9661;SDS011;24982;52.344;12.990;2022-08-01T14:54:58;1.00;;;1.00;;
9661;SDS011;24982;52.344;12.990;2022-08-01T14:58:00;2.45;;;0.90;;
9661;SDS011;24982;52.344;12.990;2022-08-01T15:01:04;2.08;;;1.50;;
9661;SDS011;24982;52.344;12.990;2022-08-01T15:04:06;1.23;;;1.13;;
9661;SDS011;24982;52.344;12.990;2022-08-01T15:07:08;1.27;;;0.82;;
9661;SDS011;24982;52.344;12.990;2022-08-01T15:10:10;1.10;;;1.00;;
9661;SDS011;24982;52.344;12.990;2022-08-01T15:13:12;2.20;;;1.00;;
9661;SDS011;24982;52.344;12.990;2022-08-01T15:16:15;0.93;;;0.93;;
9661;SDS011;24982;52.344;12.990;2022-08-01T15:19:17;1.00;;;1.00;;
9661;SDS011;24982;52.344;12.990;2022-08-01T15:22:20;2.05;;;0.95;;
9661;SDS011;24982;52.344;12.990;2022-08-01T15:25:22;1.00;;;1.00;;
9661;SDS011;24982;52.344;12.990;2022-08-01T15:28:25;1.00;;;1.00;;
9661;SDS011;24982;52.344;12.990;2022-08-01T15:31:28;0.90;;;0.90;;
9661;SDS011;24982;52.344;12.990;2022-08-01T15:34:30;2.00;;;1.10;;
9661;SDS011;24982;52.344;12.990;2022-08-01T15:37:32;0.80;;;0.80;;
9661;SDS011;24982;52.344;12.990;2022-08-01T15:40:35;1.40;;;1.10;;
9661;SDS011;24982;52.344;12.990;2022-08-01T15:43:37;1.00;;;1.00;;
9661;SDS011;24982;52.344;12.990;2022-08-01T15:46:41;1.77;;;0.90;;
9661;SDS011;24982;52.344;12.990;2022-08-01T15:49:43;1.08;;;1.00;;
9661;SDS011;24982;52.344;12.990;2022-08-01T15:52:45;0.95;;;0.95;;
9661;SDS011;24982;52.344;12.990;2022-08-01T15:55:47;0.90;;;0.90;;
9661;SDS011;24982;52.344;12.990;2022-08-01T15:58:49;0.80;;;0.80;;
9661;SDS011;24982;52.344;12.990;2022-08-01T16:01:53;0.80;;;0.80;;
9661;SDS011;24982;52.344;12.990;2022-08-01T16:04:55;0.80;;;0.80;;
9661;SDS011;24982;52.344;12.990;2022-08-01T16:07:57;0.82;;;0.82;;
9661;SDS011;24982;52.344;12.990;2022-08-01T16:10:59;2.92;;;0.90;;
9661;SDS011;24982;52.344;12.990;2022-08-01T16:14:01;1.17;;;0.80;;
9661;SDS011;24982;52.344;12.990;2022-08-01T16:17:05;1.02;;;0.90;;
9661;SDS011;24982;52.344;12.990;2022-08-01T16:20:08;0.98;;;0.98;;
9661;SDS011;24982;52.344;12.990;2022-08-01T16:23:10;1.10;;;1.00;;
9661;SDS011;24982;52.344;12.990;2022-08-01T16:26:12;0.85;;;0.85;;
9661;SDS011;24982;52.344;12.990;2022-08-01T16:29:14;0.88;;;0.88;;
9661;SDS011;24982;52.344;12.990;2022-08-01T16:32:18;0.90;;;0.90;;
9661;SDS011;24982;52.344;12.990;2022-08-01T16:35:20;4.78;;;1.00;;
9661;SDS011;24982;52.344;12.990;2022-08-01T16:38:22;0.90;;;0.90;;
9661;SDS011;24982;52.344;12.990;2022-08-01T16:41:23;1.52;;;1.42;;
9661;SDS011;24982;52.344;12.990;2022-08-01T16:44:26;4.38;;;0.90;;
9661;SDS011;24982;52.344;12.990;2022-08-01T16:47:29;4.13;;;1.38;;
9661;SDS011;24982;52.344;12.990;2022-08-01T16:50:31;3.63;;;1.33;;
9661;SDS011;24982;52.344;12.990;2022-08-01T16:53:33;6.93;;;1.83;;
9661;SDS011;24982;52.344;12.990;2022-08-01T16:56:35;2.03;;;1.05;;
9661;SDS011;24982;52.344;12.990;2022-08-01T16:59:37;2.15;;;1.10;;
9661;SDS011;24982;52.344;12.990;2022-08-01T17:02:41;1.13;;;1.13;;
9661;SDS011;24982;52.344;12.990;2022-08-01T17:05:44;6.40;;;2.30;;
9661;SDS011;24982;52.344;12.990;2022-08-01T17:08:46;1.30;;;1.20;;
9661;SDS011;24982;52.344;12.990;2022-08-01T17:11:49;3.22;;;1.15;;
9661;SDS011;24982;52.344;12.990;2022-08-01T17:14:51;1.35;;;1.02;;
9661;SDS011;24982;52.344;12.990;2022-08-01T17:17:54;2.60;;;1.30;;
9661;SDS011;24982;52.344;12.990;2022-08-01T17:20:57;1.88;;;1.48;;
9661;SDS011;24982;52.344;12.990;2022-08-01T17:23:59;1.20;;;1.17;;
9661;SDS011;24982;52.344;12.990;2022-08-01T17:27:01;1.65;;;1.55;;
9661;SDS011;24982;52.344;12.990;2022-08-01T17:30:04;1.65;;;1.50;;
9661;SDS011;24982;52.344;12.990;2022-08-01T17:33:08;4.07;;;2.17;;
9661;SDS011;24982;52.344;12.990;2022-08-01T17:36:10;3.90;;;2.45;;
9661;SDS011;24982;52.344;12.990;2022-08-01T17:39:12;1.80;;;1.70;;
9661;SDS011;24982;52.344;12.990;2022-08-01T17:42:14;2.42;;;1.50;;
9661;SDS011;24982;52.344;12.990;2022-08-01T17:45:17;1.50;;;1.20;;
9661;SDS011;24982;52.344;12.990;2022-08-01T17:48:20;1.20;;;1.20;;
9661;SDS011;24982;52.344;12.990;2022-08-01T17:51:22;1.40;;;1.30;;
9661;SDS011;24982;52.344;12.990;2022-08-01T17:54:24;1.42;;;1.20;;
9661;SDS011;24982;52.344;12.990;2022-08-01T17:57:26;1.98;;;1.50;;
9661;SDS011;24982;52.344;12.990;2022-08-01T18:00:29;3.80;;;1.42;;
9661;SDS011;24982;52.344;12.990;2022-08-01T18:03:34;1.38;;;1.33;;
9661;SDS011;24982;52.344;12.990;2022-08-01T18:06:36;3.90;;;1.63;;
9661;SDS011;24982;52.344;12.990;2022-08-01T18:09:38;1.60;;;1.60;;
9661;SDS011;24982;52.344;12.990;2022-08-01T18:12:41;1.52;;;1.52;;
9661;SDS011;24982;52.344;12.990;2022-08-01T18:15:43;1.70;;;1.60;;
9661;SDS011;24982;52.344;12.990;2022-08-01T18:18:47;1.55;;;1.55;;
9661;SDS011;24982;52.344;12.990;2022-08-01T18:21:49;1.85;;;1.75;;
9661;SDS011;24982;52.344;12.990;2022-08-01T18:24:51;1.70;;;1.60;;
9661;SDS011;24982;52.344;12.990;2022-08-01T18:27:53;1.85;;;1.75;;
9661;SDS011;24982;52.344;12.990;2022-08-01T18:30:56;1.80;;;1.70;;
9661;SDS011;24982;52.344;12.990;2022-08-01T18:33:59;1.70;;;1.60;;